Terminal Aerodrome Forecast
Issued by NWS

Home | Current Version | Previous Version | Text Only | Print | Product List | Glossary Off
Versions: 1 2 3 4 5 6 7 8 9 10 11 12 13 14 15 16 17

823
FTUS43 KBIS 211122
TAFDIK
TAF
KDIK 211122Z 2112/2212 20012KT P6SM FEW200
     FM211400 27014KT P6SM FEW080 FEW250
     FM211700 30020G29KT P6SM FEW080 FEW250
     FM212300 32014KT P6SM SKC
     FM220200 35008KT P6SM FEW120 FEW250=

USA.gov is the U.S. government's official web portal to all federal, state and local government web resources and services.